createdAt,value
2018-08-13T00:00:26.294Z,25.64
2018-08-13T00:00:58.331Z,25.67
2018-08-13T00:01:30.396Z,25.64
2018-08-13T00:02:02.459Z,25.64
2018-08-13T00:02:34.534Z,25.62
2018-08-13T00:03:06.602Z,25.64
2018-08-13T00:03:38.672Z,25.57
2018-08-13T00:04:10.793Z,25.54
2018-08-13T00:04:42.838Z,25.54
2018-08-13T00:05:14.889Z,25.59
2018-08-13T00:05:46.957Z,25.56
2018-08-13T00:06:19.040Z,25.57
2018-08-13T00:06:51.080Z,25.57
2018-08-13T00:07:23.136Z,25.59
2018-08-13T00:07:55.206Z,25.59
2018-08-13T00:08:27.395Z,25.57
2018-08-13T00:08:59.466Z,25.63
2018-08-13T00:09:31.517Z,25.6
2018-08-13T00:10:03.559Z,25.62
2018-08-13T00:10:35.609Z,25.56
2018-08-13T00:11:07.662Z,25.64
2018-08-13T00:11:39.745Z,25.59
2018-08-13T00:12:11.809Z,25.62
2018-08-13T00:12:43.866Z,25.63
2018-08-13T00:13:15.894Z,25.57
2018-08-13T00:13:47.966Z,25.56
2018-08-13T00:14:19.999Z,25.62
2018-08-13T00:14:52.054Z,25.57
2018-08-13T00:15:24.064Z,25.6
2018-08-13T00:15:56.149Z,25.56
2018-08-13T00:16:28.224Z,25.59
2018-08-13T00:17:00.286Z,25.54
2018-08-13T00:17:32.402Z,25.52
2018-08-13T00:18:04.488Z,25.52
2018-08-13T00:18:36.520Z,25.57
2018-08-13T00:19:08.587Z,25.56
2018-08-13T00:19:40.611Z,25.49
2018-08-13T00:20:12.671Z,25.44
2018-08-13T00:20:45.308Z,25.54
2018-08-13T00:21:17.416Z,25.52
2018-08-13T00:21:49.460Z,25.59
2018-08-13T00:22:21.499Z,25.52
2018-08-13T00:22:53.645Z,25.56
2018-08-13T00:23:25.699Z,25.49
2018-08-13T00:23:57.738Z,25.42
2018-08-13T00:24:29.769Z,25.45
2018-08-13T00:25:01.855Z,25.45
2018-08-13T00:25:34.706Z,25.48
2018-08-13T00:26:06.747Z,25.45
2018-08-13T00:26:38.825Z,25.41
2018-08-13T00:27:10.903Z,25.41
2018-08-13T00:27:42.951Z,25.44
2018-08-13T00:28:14.991Z,25.45
2018-08-13T00:28:47.049Z,25.45
2018-08-13T00:29:19.140Z,25.41
2018-08-13T00:29:51.226Z,25.44
2018-08-13T00:30:23.311Z,25.44
2018-08-13T00:30:55.365Z,25.48
2018-08-13T00:31:27.417Z,25.49
2018-08-13T00:31:59.449Z,25.44
2018-08-13T00:32:31.492Z,25.44
2018-08-13T00:33:03.511Z,25.42
2018-08-13T00:33:35.595Z,25.34
2018-08-13T00:34:07.629Z,25.38
2018-08-13T00:34:39.706Z,25.44
2018-08-13T00:35:11.770Z,25.48
2018-08-13T00:35:43.802Z,25.37
2018-08-13T00:36:15.883Z,25.33
2018-08-13T00:36:47.950Z,25.48
2018-08-13T00:37:20.107Z,25.32
2018-08-13T00:37:52.219Z,25.39
2018-08-13T00:38:24.285Z,25.42
2018-08-13T00:38:56.330Z,25.41
2018-08-13T00:39:28.388Z,25.32
2018-08-13T00:40:00.426Z,25.33
2018-08-13T00:40:32.558Z,25.33
2018-08-13T00:41:04.626Z,25.27
2018-08-13T00:41:36.675Z,25.39
2018-08-13T00:42:08.767Z,25.3
2018-08-13T00:42:40.794Z,25.37
2018-08-13T00:43:12.867Z,25.37
2018-08-13T00:43:44.928Z,25.34
2018-08-13T00:44:16.993Z,25.37
2018-08-13T00:44:49.085Z,25.34
2018-08-13T00:45:21.124Z,25.3
2018-08-13T00:45:53.204Z,25.33
2018-08-13T00:46:25.260Z,25.34
2018-08-13T00:46:57.329Z,25.39
2018-08-13T00:47:29.367Z,25.3
2018-08-13T00:48:01.433Z,25.34
2018-08-13T00:48:33.467Z,25.32
2018-08-13T00:49:05.485Z,25.33
2018-08-13T00:49:37.544Z,25.33
2018-08-13T00:50:09.624Z,25.34
2018-08-13T00:50:41.830Z,25.29
2018-08-13T00:51:14.002Z,25.34
2018-08-13T00:51:46.093Z,25.27
2018-08-13T00:52:18.117Z,25.3
2018-08-13T00:52:50.192Z,25.32
2018-08-13T00:53:22.199Z,25.32
2018-08-13T00:53:54.300Z,25.29
2018-08-13T00:54:26.356Z,25.3
2018-08-13T00:54:58.401Z,25.33
2018-08-13T00:55:30.456Z,25.27
2018-08-13T00:56:02.540Z,25.38
2018-08-13T00:56:34.571Z,25.27
2018-08-13T00:57:06.555Z,25.27
2018-08-13T00:57:38.590Z,25.3
2018-08-13T00:58:10.642Z,25.29
2018-08-13T00:58:42.665Z,25.29
2018-08-13T00:59:14.740Z,25.29
2018-08-13T00:59:46.828Z,25.2
2018-08-13T01:00:19.034Z,25.26
2018-08-13T01:00:51.098Z,25.23
2018-08-13T01:01:23.216Z,25.22
2018-08-13T01:01:55.377Z,25.24
2018-08-13T01:02:27.428Z,25.24
2018-08-13T01:02:59.461Z,25.2
2018-08-13T01:03:31.525Z,25.26
2018-08-13T01:04:03.589Z,25.19
2018-08-13T01:04:35.681Z,25.2
2018-08-13T01:05:07.801Z,25.17
2018-08-13T01:05:39.863Z,25.23
2018-08-13T01:06:11.891Z,25.26
2018-08-13T01:06:43.979Z,25.17
2018-08-13T01:07:16.056Z,25.22
2018-08-13T01:07:48.331Z,25.19
2018-08-13T01:08:20.422Z,25.29
2018-08-13T01:08:52.590Z,25.2
2018-08-13T01:09:24.779Z,25.2
2018-08-13T01:09:56.918Z,25.19
2018-08-13T01:10:28.916Z,25.17
2018-08-13T01:11:00.991Z,25.22
2018-08-13T01:11:33.064Z,25.14
2018-08-13T01:12:05.128Z,25.14
2018-08-13T01:12:37.192Z,25.14
2018-08-13T01:13:09.273Z,25.15
2018-08-13T01:13:41.295Z,25.22
2018-08-13T01:14:13.366Z,25.12
2018-08-13T01:14:45.396Z,25.15
2018-08-13T01:15:17.416Z,25.15
2018-08-13T01:15:49.520Z,25.22
2018-08-13T01:16:21.574Z,25.15
2018-08-13T01:16:53.624Z,25.14
2018-08-13T01:17:25.766Z,25.14
2018-08-13T01:17:57.833Z,25.11
2018-08-13T01:18:29.962Z,25.05
2018-08-13T01:19:02.001Z,25.08
2018-08-13T01:19:34.047Z,25.15
2018-08-13T01:20:06.147Z,25.15
2018-08-13T01:20:38.208Z,25.11
2018-08-13T01:21:10.314Z,25.15
2018-08-13T01:21:42.362Z,25.17
2018-08-13T01:22:14.441Z,25.05
2018-08-13T01:22:46.534Z,25.15
2018-08-13T01:23:18.589Z,25.12
2018-08-13T01:23:50.641Z,25.12
2018-08-13T01:24:22.707Z,25.09
2018-08-13T01:24:54.764Z,25.04
2018-08-13T01:25:26.867Z,25.11
2018-08-13T01:25:58.960Z,25.01
2018-08-13T01:26:31.039Z,25.08
2018-08-13T01:27:03.139Z,25.07
2018-08-13T01:27:35.271Z,25.01
2018-08-13T01:28:07.333Z,25.02
2018-08-13T01:28:39.424Z,25.09
2018-08-13T01:29:11.501Z,25.07
2018-08-13T01:29:43.580Z,25
2018-08-13T01:30:15.669Z,25.05
2018-08-13T01:30:47.722Z,25.02
2018-08-13T01:31:19.769Z,25.02
2018-08-13T01:31:51.829Z,25.12
2018-08-13T01:32:23.848Z,25.05
2018-08-13T01:32:55.945Z,25.04
2018-08-13T01:33:27.991Z,25.04
2018-08-13T01:34:00.024Z,25.02
2018-08-13T01:34:32.775Z,25.04
2018-08-13T01:35:04.852Z,25.01
2018-08-13T01:35:36.954Z,25.02
2018-08-13T01:36:09.014Z,25.12
2018-08-13T01:36:41.050Z,25.04
2018-08-13T01:37:13.088Z,25
2018-08-13T01:37:45.159Z,25.04
2018-08-13T01:38:17.194Z,25.02
2018-08-13T01:38:49.251Z,25.08
2018-08-13T01:39:21.291Z,25.04
2018-08-13T01:39:53.380Z,25
2018-08-13T01:40:25.437Z,25.01
2018-08-13T01:40:57.524Z,25.01
2018-08-13T01:41:29.620Z,25.08
2018-08-13T01:42:01.706Z,25.05
2018-08-13T01:42:33.777Z,25.01
2018-08-13T01:43:05.838Z,25.01
2018-08-13T01:43:37.893Z,25.04
2018-08-13T01:44:09.999Z,25.04
2018-08-13T01:44:42.071Z,25.04
2018-08-13T01:45:14.145Z,25.01
2018-08-13T01:45:46.213Z,24.96
2018-08-13T01:46:18.276Z,25.02
2018-08-13T01:46:50.306Z,24.97
2018-08-13T01:47:22.373Z,25
2018-08-13T01:47:54.413Z,25.04
2018-08-13T01:48:26.493Z,25.01
2018-08-13T01:48:58.562Z,25.01
2018-08-13T01:49:30.619Z,25
2018-08-13T01:50:02.693Z,24.97
2018-08-13T01:50:34.746Z,24.97
2018-08-13T01:51:06.817Z,24.97
2018-08-13T01:51:38.896Z,24.97
2018-08-13T01:52:10.974Z,24.96
2018-08-13T01:52:43.024Z,24.9
2018-08-13T01:53:15.971Z,24.94
2018-08-13T01:53:48.015Z,24.82
2018-08-13T01:54:20.090Z,24.97
2018-08-13T01:54:52.114Z,24.94
2018-08-13T01:55:24.214Z,24.92
2018-08-13T01:55:56.259Z,24.9
2018-08-13T01:56:28.310Z,24.97
2018-08-13T01:57:00.454Z,24.93
2018-08-13T01:57:32.475Z,24.93
2018-08-13T01:58:04.533Z,24.97
2018-08-13T01:58:36.581Z,24.92
2018-08-13T01:59:08.738Z,24.9
2018-08-13T01:59:40.827Z,24.92
2018-08-13T02:00:12.927Z,24.94
2018-08-13T02:00:44.943Z,24.94
2018-08-13T02:01:17.030Z,24.97
2018-08-13T02:01:49.127Z,24.92
2018-08-13T02:02:21.515Z,24.92
2018-08-13T02:02:53.692Z,24.93
2018-08-13T02:03:25.755Z,24.94
2018-08-13T02:03:57.900Z,24.94
2018-08-13T02:04:29.934Z,24.9
2018-08-13T02:05:02.008Z,24.9
2018-08-13T02:05:34.080Z,24.9
2018-08-13T02:06:06.130Z,24.82
2018-08-13T02:06:38.232Z,24.87
2018-08-13T02:07:10.323Z,24.87
2018-08-13T02:07:42.360Z,24.83
2018-08-13T02:08:14.409Z,24.82
2018-08-13T02:08:46.522Z,24.9
2018-08-13T02:09:18.576Z,24.82
2018-08-13T02:09:50.682Z,24.89
2018-08-13T02:10:22.754Z,24.87
2018-08-13T02:10:54.811Z,24.89
2018-08-13T02:11:27.701Z,24.83
2018-08-13T02:12:00.386Z,24.85
2018-08-13T02:12:32.447Z,24.89
2018-08-13T02:13:04.533Z,24.83
2018-08-13T02:13:36.585Z,24.74
2018-08-13T02:14:08.636Z,24.89
2018-08-13T02:14:40.701Z,24.87
2018-08-13T02:15:12.782Z,24.87
2018-08-13T02:15:44.852Z,24.82
2018-08-13T02:16:16.936Z,24.87
2018-08-13T02:16:49.014Z,24.74
2018-08-13T02:17:21.049Z,24.83
2018-08-13T02:17:53.107Z,24.8
2018-08-13T02:18:25.130Z,24.71
2018-08-13T02:18:57.330Z,24.74
2018-08-13T02:19:29.395Z,24.69
2018-08-13T02:20:01.463Z,24.77
2018-08-13T02:20:33.524Z,24.75
2018-08-13T02:21:05.580Z,24.75
2018-08-13T02:21:37.676Z,24.77
2018-08-13T02:22:09.732Z,24.83
2018-08-13T02:22:41.778Z,24.78
2018-08-13T02:23:13.831Z,24.8
2018-08-13T02:23:45.905Z,24.77
2018-08-13T02:24:18.011Z,24.82
2018-08-13T02:24:50.041Z,24.77
2018-08-13T02:25:22.077Z,24.69
2018-08-13T02:25:54.145Z,24.75
2018-08-13T02:26:26.166Z,24.78
2018-08-13T02:26:58.285Z,24.78
2018-08-13T02:27:30.360Z,24.82
2018-08-13T02:28:02.439Z,24.71
2018-08-13T02:28:34.501Z,24.75
2018-08-13T02:29:06.585Z,24.82
2018-08-13T02:29:38.653Z,24.71
2018-08-13T02:30:10.712Z,24.78
2018-08-13T02:30:42.778Z,24.78
2018-08-13T02:31:14.859Z,24.74
2018-08-13T02:31:46.919Z,24.75
2018-08-13T02:32:18.961Z,24.75
2018-08-13T02:32:51.015Z,24.75
2018-08-13T02:33:23.121Z,24.67
2018-08-13T02:33:55.186Z,24.74
2018-08-13T02:34:27.283Z,24.69
2018-08-13T02:34:59.353Z,24.75
2018-08-13T02:35:31.388Z,24.67
2018-08-13T02:36:03.468Z,24.74
2018-08-13T02:36:35.493Z,24.77
2018-08-13T02:37:07.543Z,24.69
2018-08-13T02:37:39.593Z,24.74
2018-08-13T02:38:11.668Z,24.75
2018-08-13T02:38:43.735Z,24.75
2018-08-13T02:39:16.008Z,24.74
2018-08-13T02:39:48.081Z,24.75
2018-08-13T02:40:20.163Z,24.69
2018-08-13T02:40:52.228Z,24.74
2018-08-13T02:41:24.313Z,24.74
2018-08-13T02:41:56.353Z,24.74
2018-08-13T02:42:28.426Z,24.77
2018-08-13T02:43:00.466Z,24.71
2018-08-13T02:43:32.521Z,24.74
2018-08-13T02:44:04.573Z,24.69
2018-08-13T02:44:36.624Z,24.74
2018-08-13T02:45:08.724Z,24.66
2018-08-13T02:45:40.774Z,24.64
2018-08-13T02:46:12.850Z,24.69
2018-08-13T02:46:44.949Z,24.75
2018-08-13T02:47:16.995Z,24.71
2018-08-13T02:47:49.034Z,24.7
2018-08-13T02:48:21.102Z,24.74
2018-08-13T02:48:53.142Z,24.71
2018-08-13T02:49:25.225Z,24.7
2018-08-13T02:49:57.282Z,24.71
2018-08-13T02:50:29.354Z,24.66
2018-08-13T02:51:01.384Z,24.71
2018-08-13T02:51:33.420Z,24.75
2018-08-13T02:52:05.471Z,24.74
2018-08-13T02:52:37.554Z,24.7
2018-08-13T02:53:09.795Z,24.78
2018-08-13T02:53:41.895Z,24.77
2018-08-13T02:54:14.016Z,24.7
2018-08-13T02:54:46.111Z,24.69
2018-08-13T02:55:18.156Z,24.71
2018-08-13T02:55:50.232Z,24.75
2018-08-13T02:56:22.284Z,24.67
2018-08-13T02:56:54.353Z,24.7
2018-08-13T02:57:26.417Z,24.69
2018-08-13T02:57:58.484Z,24.77
2018-08-13T02:58:30.529Z,24.71
2018-08-13T02:59:02.608Z,24.75
2018-08-13T02:59:34.685Z,24.66
2018-08-13T03:00:06.734Z,24.71
2018-08-13T03:00:38.828Z,24.75
2018-08-13T03:01:11.007Z,24.67
2018-08-13T03:01:43.072Z,24.71
2018-08-13T03:02:15.129Z,24.63
2018-08-13T03:02:47.203Z,24.7
2018-08-13T03:03:19.270Z,24.66
2018-08-13T03:03:51.337Z,24.71
2018-08-13T03:04:23.416Z,24.7
2018-08-13T03:04:55.490Z,24.61
2018-08-13T03:05:27.580Z,24.64
2018-08-13T03:05:59.622Z,24.63
2018-08-13T03:06:31.666Z,24.7
2018-08-13T03:07:03.745Z,24.58
2018-08-13T03:07:35.814Z,24.61
2018-08-13T03:08:08.031Z,24.63
2018-08-13T03:08:40.113Z,24.61
2018-08-13T03:09:12.140Z,24.63
2018-08-13T03:09:44.202Z,24.59
2018-08-13T03:10:16.263Z,24.66
2018-08-13T03:10:48.397Z,24.61
2018-08-13T03:11:20.486Z,24.63
2018-08-13T03:11:52.562Z,24.61
2018-08-13T03:12:24.620Z,24.69
2018-08-13T03:12:56.696Z,24.64
2018-08-13T03:13:28.798Z,24.64
2018-08-13T03:14:00.888Z,24.66
2018-08-13T03:14:32.976Z,24.59
2018-08-13T03:15:05.044Z,24.63
2018-08-13T03:15:37.138Z,24.63
2018-08-13T03:16:09.216Z,24.56
2018-08-13T03:16:41.272Z,24.61
2018-08-13T03:17:13.326Z,24.63
2018-08-13T03:17:45.405Z,24.64
2018-08-13T03:18:17.492Z,24.61
2018-08-13T03:18:49.539Z,24.58
2018-08-13T03:19:21.604Z,24.59
2018-08-13T03:19:54.431Z,24.61
2018-08-13T03:20:26.476Z,24.61
2018-08-13T03:20:58.537Z,24.61
2018-08-13T03:21:30.610Z,24.69
2018-08-13T03:22:02.668Z,24.66
2018-08-13T03:22:34.761Z,24.59
2018-08-13T03:23:06.793Z,24.61
2018-08-13T03:23:38.849Z,24.61
2018-08-13T03:24:10.910Z,24.59
2018-08-13T03:24:42.942Z,24.59
2018-08-13T03:25:15.001Z,24.59
2018-08-13T03:25:47.065Z,24.58
2018-08-13T03:26:19.132Z,24.58
2018-08-13T03:26:51.179Z,24.56
2018-08-13T03:27:23.343Z,24.64
2018-08-13T03:27:55.404Z,24.63
2018-08-13T03:28:27.472Z,24.64
2018-08-13T03:28:59.509Z,24.63
2018-08-13T03:29:31.591Z,24.59
2018-08-13T03:30:03.678Z,24.58
2018-08-13T03:30:35.770Z,24.52
2018-08-13T03:31:07.859Z,24.67
2018-08-13T03:31:39.916Z,24.61
2018-08-13T03:32:11.994Z,24.63
2018-08-13T03:32:44.066Z,24.59
2018-08-13T03:33:16.209Z,24.54
2018-08-13T03:33:48.249Z,24.63
2018-08-13T03:34:20.291Z,24.56
2018-08-13T03:34:52.382Z,24.54
2018-08-13T03:35:24.424Z,24.56
2018-08-13T03:35:56.643Z,24.55
2018-08-13T03:36:28.719Z,24.66
2018-08-13T03:37:00.785Z,24.52
2018-08-13T03:37:32.819Z,24.59
2018-08-13T03:38:04.883Z,24.56
2018-08-13T03:38:36.896Z,24.54
2018-08-13T03:39:08.980Z,24.54
2018-08-13T03:39:41.031Z,24.58
2018-08-13T03:40:13.103Z,24.59
2018-08-13T03:40:45.155Z,24.59
2018-08-13T03:41:17.219Z,24.54
2018-08-13T03:41:49.319Z,24.64
2018-08-13T03:42:21.363Z,24.54
2018-08-13T03:42:53.435Z,24.48
2018-08-13T03:43:25.497Z,24.54
2018-08-13T03:43:57.541Z,24.55
2018-08-13T03:44:29.701Z,24.56
2018-08-13T03:45:01.740Z,24.54
2018-08-13T03:45:33.795Z,24.54
2018-08-13T03:46:05.866Z,24.49
2018-08-13T03:46:38.039Z,24.58
2018-08-13T03:47:10.096Z,24.55
2018-08-13T03:47:42.117Z,24.59
2018-08-13T03:48:14.184Z,24.48
2018-08-13T03:48:46.232Z,24.49
2018-08-13T03:49:18.268Z,24.56
2018-08-13T03:49:50.406Z,24.58
2018-08-13T03:50:22.426Z,24.45
2018-08-13T03:50:54.492Z,24.54
2018-08-13T03:51:26.625Z,24.54
2018-08-13T03:51:58.786Z,24.55
2018-08-13T03:52:30.848Z,24.51
2018-08-13T03:53:02.918Z,24.58
2018-08-13T03:53:34.979Z,24.58
2018-08-13T03:54:07.008Z,24.54
2018-08-13T03:54:39.088Z,24.56
2018-08-13T03:55:11.163Z,24.63
2018-08-13T03:55:43.254Z,24.58
2018-08-13T03:56:15.319Z,24.54
2018-08-13T03:56:47.391Z,24.59
2018-08-13T03:57:19.459Z,24.55
2018-08-13T03:57:51.536Z,24.54
2018-08-13T03:58:23.599Z,24.55
2018-08-13T03:58:55.643Z,24.61
2018-08-13T03:59:27.701Z,24.51
2018-08-13T03:59:59.791Z,24.55
2018-08-13T04:00:31.842Z,24.54
2018-08-13T04:01:04.030Z,24.44
2018-08-13T04:01:36.121Z,24.58
2018-08-13T04:02:08.203Z,24.48
2018-08-13T04:02:40.296Z,24.54
2018-08-13T04:03:12.384Z,24.55
2018-08-13T04:03:44.439Z,24.54
2018-08-13T04:04:16.538Z,24.46
2018-08-13T04:04:48.591Z,24.44
2018-08-13T04:05:20.614Z,24.44
2018-08-13T04:05:52.699Z,24.54
2018-08-13T04:06:24.848Z,24.48
2018-08-13T04:06:56.888Z,24.58
2018-08-13T04:07:28.929Z,24.45
2018-08-13T04:08:00.983Z,24.4
2018-08-13T04:08:33.062Z,24.49
2018-08-13T04:09:05.111Z,24.51
2018-08-13T04:09:37.195Z,24.48
2018-08-13T04:10:09.324Z,24.44
2018-08-13T04:10:41.366Z,24.42
2018-08-13T04:11:13.409Z,24.44
2018-08-13T04:11:45.462Z,24.45
2018-08-13T04:12:17.559Z,24.49
2018-08-13T04:12:49.738Z,24.48
2018-08-13T04:13:21.924Z,24.45
2018-08-13T04:13:53.990Z,24.44
2018-08-13T04:14:26.019Z,24.46
2018-08-13T04:14:58.087Z,24.42
2018-08-13T04:15:30.155Z,24.49
2018-08-13T04:16:02.285Z,24.44
2018-08-13T04:16:34.439Z,24.54
2018-08-13T04:17:06.540Z,24.48
2018-08-13T04:17:38.574Z,24.45
2018-08-13T04:18:10.636Z,24.56
2018-08-13T04:18:42.709Z,24.44
2018-08-13T04:19:14.783Z,24.46
2018-08-13T04:19:47.660Z,24.45
2018-08-13T04:20:19.704Z,24.46
2018-08-13T04:20:51.870Z,24.46
2018-08-13T04:21:23.921Z,24.49
2018-08-13T04:21:55.970Z,24.48
2018-08-13T04:22:28.094Z,24.48
2018-08-13T04:23:00.128Z,24.45
2018-08-13T04:23:32.228Z,24.52
2018-08-13T04:24:04.302Z,24.46
2018-08-13T04:24:36.350Z,24.46
2018-08-13T04:25:08.477Z,24.48
2018-08-13T04:25:40.563Z,24.46
2018-08-13T04:26:12.733Z,24.48
2018-08-13T04:26:44.775Z,24.46
2018-08-13T04:27:16.835Z,24.44
2018-08-13T04:27:48.885Z,24.45
2018-08-13T04:28:20.913Z,24.45
2018-08-13T04:28:52.996Z,24.45
2018-08-13T04:29:25.094Z,24.42
2018-08-13T04:29:57.255Z,24.52
2018-08-13T04:30:29.339Z,24.51
2018-08-13T04:31:02.069Z,24.52
2018-08-13T04:31:34.088Z,24.54
2018-08-13T04:32:06.216Z,24.55
2018-08-13T04:32:38.300Z,24.46
2018-08-13T04:33:10.396Z,24.49
2018-08-13T04:33:42.426Z,24.44
2018-08-13T04:34:14.552Z,24.49
2018-08-13T04:34:46.712Z,24.49
2018-08-13T04:35:18.751Z,24.48
2018-08-13T04:35:50.818Z,24.52
2018-08-13T04:36:22.899Z,24.42
2018-08-13T04:36:54.946Z,24.46
2018-08-13T04:37:26.998Z,24.49
2018-08-13T04:37:59.092Z,24.48
2018-08-13T04:38:31.170Z,24.46
2018-08-13T04:39:03.240Z,24.45
2018-08-13T04:39:35.284Z,24.44
2018-08-13T04:40:07.315Z,24.48
2018-08-13T04:40:39.373Z,24.46
2018-08-13T04:41:11.429Z,24.45
2018-08-13T04:41:43.467Z,24.45
2018-08-13T04:42:15.592Z,24.51
2018-08-13T04:42:47.765Z,24.45
2018-08-13T04:43:19.848Z,24.48
2018-08-13T04:43:52.755Z,24.55
2018-08-13T04:44:24.814Z,24.48
2018-08-13T04:44:56.826Z,24.56
2018-08-13T04:45:28.938Z,24.49
2018-08-13T04:46:01.027Z,24.51
2018-08-13T04:46:33.046Z,24.44
2018-08-13T04:47:05.094Z,24.42
2018-08-13T04:47:37.280Z,24.51
2018-08-13T04:48:09.334Z,24.54
2018-08-13T04:48:41.390Z,24.59
2018-08-13T04:49:13.481Z,24.45
2018-08-13T04:49:45.548Z,24.52
2018-08-13T04:50:17.609Z,24.48
2018-08-13T04:50:49.655Z,24.61
2018-08-13T04:51:21.713Z,24.58
2018-08-13T04:51:53.764Z,24.54
2018-08-13T04:52:25.838Z,24.54
2018-08-13T04:52:57.923Z,24.54
2018-08-13T04:53:29.983Z,24.54
2018-08-13T04:54:02.107Z,24.54
2018-08-13T04:54:34.156Z,24.48
2018-08-13T04:55:06.215Z,24.45
2018-08-13T04:55:38.275Z,24.46
2018-08-13T04:56:10.351Z,24.59
2018-08-13T04:56:42.427Z,24.55
2018-08-13T04:57:14.456Z,24.51
2018-08-13T04:57:46.479Z,24.54
2018-08-13T04:58:18.559Z,24.55
2018-08-13T04:58:50.640Z,24.55
2018-08-13T04:59:22.660Z,24.54
2018-08-13T04:59:54.707Z,24.59
2018-08-13T05:00:26.786Z,24.58
2018-08-13T05:00:58.977Z,24.59
2018-08-13T05:01:31.225Z,24.58
2018-08-13T05:02:03.333Z,24.59
2018-08-13T05:02:35.373Z,24.58
2018-08-13T05:03:07.407Z,24.61
2018-08-13T05:03:39.459Z,24.61
2018-08-13T05:04:11.512Z,24.61
2018-08-13T05:04:43.567Z,24.61
2018-08-13T05:05:15.611Z,24.56
2018-08-13T05:05:47.683Z,24.66
2018-08-13T05:06:19.727Z,24.63
2018-08-13T05:06:51.793Z,24.71
2018-08-13T05:07:23.896Z,24.71
2018-08-13T05:07:56.222Z,24.77
2018-08-13T05:08:28.296Z,24.77
2018-08-13T05:09:00.351Z,24.75
2018-08-13T05:09:32.426Z,24.71
2018-08-13T05:10:04.590Z,24.71
2018-08-13T05:10:36.655Z,24.67
2018-08-13T05:11:08.705Z,24.66
2018-08-13T05:11:40.753Z,24.7
2018-08-13T05:12:12.934Z,24.8
2018-08-13T05:12:44.955Z,24.75
2018-08-13T05:13:17.008Z,24.74
2018-08-13T05:13:49.047Z,24.82
2018-08-13T05:14:21.126Z,24.78
2018-08-13T05:14:53.206Z,24.83
2018-08-13T05:15:25.287Z,24.77
2018-08-13T05:15:57.438Z,24.77
2018-08-13T05:16:29.483Z,24.86
2018-08-13T05:17:01.527Z,24.85
2018-08-13T05:17:33.585Z,24.86
2018-08-13T05:18:05.592Z,24.92
2018-08-13T05:18:37.734Z,24.89
2018-08-13T05:19:09.745Z,24.92
2018-08-13T05:19:41.750Z,25
2018-08-13T05:20:13.811Z,24.9
2018-08-13T05:20:45.849Z,24.92
2018-08-13T05:21:17.955Z,25.02
2018-08-13T05:21:50.005Z,25.04
2018-08-13T05:22:22.057Z,25.02
2018-08-13T05:22:54.082Z,25.01
2018-08-13T05:23:26.098Z,25
2018-08-13T05:23:58.165Z,25.02
2018-08-13T05:24:30.260Z,25.01
2018-08-13T05:25:02.309Z,25.04
2018-08-13T05:25:34.403Z,25.01
2018-08-13T05:26:06.452Z,25
2018-08-13T05:26:38.537Z,25.11
2018-08-13T05:27:10.615Z,25.07
2018-08-13T05:27:42.734Z,25.07
2018-08-13T05:28:14.809Z,25.02
2018-08-13T05:28:46.857Z,25.01
2018-08-13T05:29:18.916Z,25.11
2018-08-13T05:29:51.099Z,25.05
2018-08-13T05:30:23.301Z,25.11
2018-08-13T05:30:55.749Z,25.11
2018-08-13T05:31:29.049Z,25.14
2018-08-13T05:32:01.221Z,25.2
2018-08-13T05:32:33.439Z,25.19
2018-08-13T05:33:05.518Z,25.19
2018-08-13T05:33:37.520Z,25.15
2018-08-13T05:34:09.593Z,25.22
2018-08-13T05:34:41.709Z,25.14
2018-08-13T05:35:13.721Z,25.15
2018-08-13T05:35:45.770Z,25.15
2018-08-13T05:36:17.848Z,25.17
2018-08-13T05:36:49.875Z,25.15
2018-08-13T05:37:21.911Z,25.14
2018-08-13T05:37:53.997Z,25.22
2018-08-13T05:38:26.057Z,25.19
2018-08-13T05:38:58.077Z,25.2
2018-08-13T05:39:30.187Z,25.22
2018-08-13T05:40:02.314Z,25.14
2018-08-13T05:40:35.606Z,25.2
2018-08-13T05:41:08.940Z,25.22
2018-08-13T05:41:41.131Z,25.19
2018-08-13T05:42:13.289Z,25.2
2018-08-13T05:42:45.435Z,25.23
2018-08-13T05:43:17.593Z,25.15
2018-08-13T05:43:49.625Z,25.23
2018-08-13T05:44:21.756Z,25.2
2018-08-13T05:44:54.103Z,25.19
2018-08-13T05:45:26.194Z,25.2
2018-08-13T05:45:58.267Z,25.22
2018-08-13T05:46:30.301Z,25.14
2018-08-13T05:47:03.273Z,25.17
2018-08-13T05:47:35.353Z,25.27
2018-08-13T05:48:07.496Z,25.22
2018-08-13T05:48:39.525Z,25.2
2018-08-13T05:49:11.550Z,25.23
2018-08-13T05:49:43.633Z,25.24
2018-08-13T05:50:15.646Z,25.19
2018-08-13T05:50:47.725Z,25.23
2018-08-13T05:51:19.805Z,25.27
